Time;durP1;ratioP1;P1;durP2;ratioP2;P2;SDS_P1;SDS_P2;PMS_P1;PMS_P2;Temp;Humidity;BMP_temperature;BMP_pressure;BME280_temperature;BME280_humidity;BME280_pressure;Samples;Min_cycle;Max_cycle;Signal;HPM_P1;HPM_P2
2022/01/25 02:52:00;;;;;;;76.93;34.45;;;1.40;52.50;;;;;;4880714;29;20606;-82
2022/01/25 02:58:25;;;;;;;83.85;36.63;;;1.40;52.70;;;;;;4843053;29;20079;-83
2022/01/25 03:22:12;;;;;;;76.50;33.65;;;1.50;55.20;;;;;;4898678;29;20083;-83
2022/01/25 03:25:34;;;;;;;;;;;;;;;;;;;;;
2022/01/25 03:29:07;;;;;;;80.43;36.05;;;2.10;53.80;;;;;;4848409;29;20523;-82
2022/01/25 03:31:37;;;;;;;34.50;17.08;;;2.30;53.10;;;;;;4809862;29;20129;-82
2022/01/25 03:37:10;;;;;;;30.48;15.15;;;2.60;53.60;;;;;;4825187;29;20120;-82
2022/01/25 03:40:02;;;;;;;31.27;14.80;;;3.00;52.80;;;;;;4808962;29;20030;-82
2022/01/25 03:42:58;;;;;;;30.20;15.02;;;3.00;52.90;;;;;;4808990;29;20150;-85
2022/01/25 03:51:29;;;;;;;;;;;;;;;;;;;;;
2022/01/25 03:57:48;;;;;;;28.95;15.02;;;3.40;52.30;;;;;;4737322;30;20043;-83
2022/01/25 04:31:37;;;;;;;25.35;12.90;;;3.20;54.20;;;;;;4791484;30;20568;-86
2022/01/25 04:34:24;;;;;;;27.33;12.95;;;3.00;54.10;;;;;;4824829;29;20088;-86
2022/01/25 04:50:50;;;;;;;27.92;13.70;;;3.90;53.80;;;;;;4883327;29;20095;-85
2022/01/25 04:55:54;;;;;;;28.80;13.82;;;4.30;53.00;;;;;;4940978;29;20028;-84
2022/01/25 04:58:28;;;;;;;31.08;13.73;;;4.40;52.90;;;;;;4924557;29;20035;-85
2022/01/25 05:00:54;;;;;;;26.33;13.00;;;4.60;52.20;;;;;;4934415;29;20533;-83
2022/01/25 05:03:26;;;;;;;21.25;12.00;;;4.40;52.20;;;;;;4936416;29;20040;-83
2022/01/25 05:11:01;;;;;;;23.33;13.02;;;4.30;52.70;;;;;;4921584;29;20024;-85
2022/01/25 05:24:06;;;;;;;22.02;12.20;;;4.10;53.40;;;;;;4940607;29;20051;-82
2022/01/25 05:26:32;;;;;;;24.25;12.30;;;4.10;53.80;;;;;;4938418;29;20015;-87
2022/01/25 05:29:01;;;;;;;23.38;11.43;;;4.50;53.20;;;;;;4904338;29;20111;-83
2022/01/25 05:50:00;;;;;;;24.20;12.10;;;3.80;54.20;;;;;;4957446;29;20118;-88
2022/01/25 05:52:27;;;;;;;20.73;11.07;;;3.80;55.10;;;;;;4938417;29;20031;-87
2022/01/25 05:54:57;;;;;;;22.02;11.32;;;3.80;54.60;;;;;;4927766;29;20031;-87
2022/01/25 05:57:22;;;;;;;28.50;13.80;;;4.00;54.40;;;;;;4923735;29;20034;-86
2022/01/25 05:59:48;;;;;;;27.65;13.60;;;3.90;54.60;;;;;;4931330;29;20737;-86
2022/01/25 06:02:20;;;;;;;27.70;13.18;;;3.90;54.50;;;;;;4940511;29;20034;-87
2022/01/25 06:04:46;;;;;;;26.67;12.13;;;3.40;56.00;;;;;;4922877;29;20066;-87
2022/01/25 06:07:12;;;;;;;28.85;13.10;;;3.50;56.10;;;;;;4937133;29;20019;-88
2022/01/25 06:09:40;;;;;;;25.98;13.23;;;3.90;55.70;;;;;;4959404;29;20054;-87
2022/01/25 06:12:06;;;;;;;28.55;13.95;;;3.80;55.60;;;;;;4942352;29;20024;-88
2022/01/25 06:14:32;;;;;;;27.27;13.05;;;3.80;56.60;;;;;;4942258;29;20118;-89
2022/01/25 06:16:58;;;;;;;27.55;13.57;;;3.60;56.60;;;;;;4941654;29;20356;-87
2022/01/25 06:19:24;;;;;;;28.83;14.02;;;3.40;57.40;;;;;;4941556;29;20027;-87
2022/01/25 06:21:50;;;;;;;24.67;12.88;;;3.50;56.90;;;;;;4942323;29;20081;-87
2022/01/25 06:24:16;;;;;;;27.92;13.98;;;3.60;56.90;;;;;;4934440;29;20487;-88
2022/01/25 06:26:41;;;;;;;30.67;15.43;;;3.60;56.60;;;;;;4926384;29;20024;-90
2022/01/25 06:29:07;;;;;;;31.52;15.88;;;3.30;58.10;;;;;;4942017;29;20467;-89
2022/01/25 06:31:39;;;;;;;29.63;13.95;;;3.50;57.90;;;;;;4942077;29;20026;-88
2022/01/25 06:34:05;;;;;;;29.10;14.18;;;3.30;57.60;;;;;;4937854;29;20023;-86
2022/01/25 06:36:37;;;;;;;28.67;14.88;;;3.20;58.10;;;;;;4923116;29;20083;-85
2022/01/25 06:39:09;;;;;;;30.25;15.15;;;3.20;58.70;;;;;;4921688;29;20071;-87
2022/01/25 06:41:36;;;;;;;26.92;13.80;;;3.50;58.20;;;;;;4921697;29;20053;-89
2022/01/25 06:44:02;;;;;;;32.85;16.60;;;3.60;58.10;;;;;;4922387;29;20084;-91
2022/01/25 06:46:28;;;;;;;40.28;19.73;;;3.70;57.90;;;;;;4922132;29;20062;-90
2022/01/25 06:48:56;;;;;;;34.15;18.90;;;4.00;58.00;;;;;;4918735;29;20047;-88
2022/01/25 06:51:22;;;;;;;37.92;18.63;;;4.00;57.60;;;;;;4921512;29;20039;-89
2022/01/25 06:53:48;;;;;;;33.55;15.93;;;4.10;57.60;;;;;;4921710;29;20040;-91
2022/01/25 06:56:14;;;;;;;38.65;17.80;;;4.10;56.80;;;;;;4922100;29;20074;-87
2022/01/25 06:58:41;;;;;;;33.20;15.93;;;4.10;57.80;;;;;;4921907;29;20058;-89
2022/01/25 07:01:07;;;;;;;36.92;16.73;;;4.30;56.60;;;;;;4922663;29;20090;-90
2022/01/25 07:03:36;;;;;;;33.53;17.00;;;3.70;57.50;;;;;;4921603;29;20135;-88
2022/01/25 07:06:02;;;;;;;35.72;17.63;;;3.40;58.30;;;;;;4922323;29;20434;-87
2022/01/25 07:08:28;;;;;;;37.50;19.08;;;3.50;58.80;;;;;;4921636;29;20032;-88
2022/01/25 07:10:54;;;;;;;35.03;17.80;;;3.80;59.00;;;;;;4922350;29;20023;-87
2022/01/25 07:13:21;;;;;;;36.15;16.90;;;4.10;58.20;;;;;;4921729;29;20039;-89
2022/01/25 07:15:47;;;;;;;31.90;15.23;;;4.00;57.50;;;;;;4922097;29;20032;-86
2022/01/25 07:18:34;;;;;;;32.92;16.98;;;3.80;57.80;;;;;;4920986;29;20072;-90
2022/01/25 07:21:03;;;;;;;34.85;16.65;;;4.20;57.80;;;;;;4580995;29;10000482;-86
2022/01/25 07:23:29;;;;;;;34.40;17.33;;;4.70;56.70;;;;;;4920688;29;20035;-87
2022/01/25 07:25:54;;;;;;;34.75;17.58;;;4.70;56.80;;;;;;4921255;29;20035;-91
2022/01/25 07:28:20;;;;;;;49.42;23.50;;;4.70;56.60;;;;;;4921656;29;20163;-92
2022/01/25 07:30:46;;;;;;;49.97;23.15;;;4.40;57.40;;;;;;4921794;29;20034;-91
2022/01/25 07:33:11;;;;;;;37.17;18.08;;;4.50;57.80;;;;;;4921116;29;20471;-89
2022/01/25 07:35:38;;;;;;;38.13;19.48;;;4.30;57.50;;;;;;4921690;29;20103;-84
2022/01/25 07:38:04;;;;;;;38.83;19.35;;;4.40;57.90;;;;;;4921023;29;20027;-89
2022/01/25 07:40:32;;;;;;;38.22;18.83;;;4.60;57.40;;;;;;4920561;29;20431;-82
2022/01/25 07:43:03;;;;;;;40.45;21.65;;;4.50;57.80;;;;;;4920031;29;20030;-89
2022/01/25 07:45:34;;;;;;;42.88;19.58;;;4.80;57.80;;;;;;4937304;29;20028;-89
2022/01/25 07:48:08;;;;;;;46.22;22.08;;;4.70;56.90;;;;;;4929681;29;20047;-91
2022/01/25 07:50:34;;;;;;;43.45;21.08;;;4.80;57.20;;;;;;4938906;29;20050;-82
2022/01/25 07:53:00;;;;;;;36.70;18.45;;;5.00;56.90;;;;;;4939296;29;20391;-89
2022/01/25 07:55:26;;;;;;;38.88;19.15;;;4.90;56.70;;;;;;4940090;29;20042;-91
2022/01/25 07:57:52;;;;;;;39.00;17.70;;;4.90;57.30;;;;;;4939896;29;20403;-90
2022/01/25 08:03:27;;;;;;;35.42;17.48;;;5.10;56.80;;;;;;4948803;29;20039;-84
2022/01/25 08:06:02;;;;;;;36.67;18.67;;;4.80;57.40;;;;;;4939206;29;20129;-82
2022/01/25 08:08:29;;;;;;;33.65;18.13;;;5.00;57.10;;;;;;4939699;29;20027;-78
2022/01/25 08:10:54;;;;;;;37.30;19.17;;;4.90;57.00;;;;;;4956996;29;20031;-90
2022/01/25 08:13:20;;;;;;;38.55;17.77;;;5.10;57.30;;;;;;4940281;29;20082;-89
2022/01/25 08:15:46;;;;;;;35.08;18.90;;;5.10;57.20;;;;;;4955768;29;20386;-91
2022/01/25 08:18:12;;;;;;;36.25;18.08;;;5.10;58.00;;;;;;4957209;29;20463;-90
2022/01/25 08:20:37;;;;;;;36.75;17.67;;;5.10;57.40;;;;;;4939816;29;20110;-82
2022/01/25 08:23:03;;;;;;;44.53;18.58;;;5.30;57.10;;;;;;4940002;29;20475;-80
2022/01/25 08:25:29;;;;;;;38.08;18.95;;;5.50;57.40;;;;;;4939182;29;20042;-80
2022/01/25 08:27:55;;;;;;;37.35;19.45;;;6.00;55.90;;;;;;4939296;29;20475;-82
2022/01/25 08:30:21;;;;;;;35.55;17.25;;;5.80;56.40;;;;;;4939155;29;20070;-87
2022/01/25 08:32:47;;;;;;;33.80;17.25;;;5.60;56.10;;;;;;4939508;29;20034;-89
2022/01/25 08:35:13;;;;;;;99.07;55.70;;;5.60;56.30;;;;;;4939313;29;20055;-87
2022/01/25 08:37:38;;;;;;;245.10;200.52;;;5.70;56.00;;;;;;4938933;29;20494;-80
2022/01/25 08:40:07;;;;;;;108.15;82.43;;;5.70;56.50;;;;;;4956587;29;20042;-91
2022/01/25 08:42:34;;;;;;;44.50;25.52;;;6.00;56.00;;;;;;4956880;29;20031;-89
2022/01/25 08:45:00;;;;;;;48.58;26.27;;;6.30;55.10;;;;;;4939486;29;20406;-92
2022/01/25 08:47:26;;;;;;;46.25;31.95;;;6.80;54.70;;;;;;4939810;29;20542;-79
2022/01/25 08:49:52;;;;;;;78.10;56.38;;;6.50;54.40;;;;;;4939429;29;20442;-87
2022/01/25 08:52:17;;;;;;;72.82;53.08;;;6.30;55.40;;;;;;4939200;29;20024;-79
2022/01/25 08:54:43;;;;;;;72.25;48.78;;;6.50;55.20;;;;;;4956363;29;20490;-85
2022/01/25 08:57:09;;;;;;;67.65;32.88;;;6.70;54.40;;;;;;4939584;29;20027;-78
2022/01/25 08:59:35;;;;;;;42.50;20.27;;;6.50;54.70;;;;;;4938833;29;20023;-79
2022/01/25 09:02:02;;;;;;;52.33;31.15;;;6.80;54.10;;;;;;4938824;29;20027;-80
2022/01/25 09:04:28;;;;;;;45.65;23.30;;;6.90;54.00;;;;;;4957295;28;20041;-79
2022/01/25 09:06:54;;;;;;;48.28;28.98;;;7.20;53.90;;;;;;4942883;29;20078;-86
2022/01/25 09:09:20;;;;;;;43.38;24.83;;;7.30;53.40;;;;;;4960365;29;20027;-83
2022/01/25 09:11:47;;;;;;;44.65;27.83;;;7.10;53.80;;;;;;4959718;29;20023;-79
2022/01/25 09:14:12;;;;;;;55.35;34.08;;;7.30;53.60;;;;;;4942281;29;20039;-79
2022/01/25 09:16:39;;;;;;;40.35;22.90;;;7.40;53.20;;;;;;4943026;29;20658;-91
2022/01/25 09:19:06;;;;;;;40.10;22.52;;;7.40;53.00;;;;;;4942311;29;20135;-89
2022/01/25 09:21:32;;;;;;;33.03;18.88;;;7.30;53.30;;;;;;4942044;29;20033;-92
2022/01/25 09:23:58;;;;;;;38.90;22.52;;;7.20;53.40;;;;;;4942539;29;20035;-80
2022/01/25 09:26:24;;;;;;;35.22;19.83;;;7.50;53.10;;;;;;4942617;29;20030;-79
2022/01/25 09:28:53;;;;;;;34.10;19.02;;;8.00;51.40;;;;;;4942710;29;20027;-85
2022/01/25 09:31:19;;;;;;;35.25;18.33;;;8.20;51.00;;;;;;4942029;29;20460;-91
2022/01/25 09:33:45;;;;;;;32.92;19.02;;;8.50;51.10;;;;;;4942600;29;20028;-88
2022/01/25 09:36:10;;;;;;;34.45;18.00;;;9.10;49.50;;;;;;4959296;29;20089;-91
2022/01/25 09:38:36;;;;;;;33.95;20.20;;;8.50;49.20;;;;;;4942683;29;20028;-91
2022/01/25 09:41:02;;;;;;;42.17;26.35;;;8.60;50.10;;;;;;4942301;29;20122;-90
2022/01/25 09:43:29;;;;;;;220.38;148.00;;;9.10;49.60;;;;;;4959652;29;20035;-85
2022/01/25 09:45:55;;;;;;;126.70;86.63;;;10.00;47.80;;;;;;4942687;29;20538;-80
2022/01/25 09:48:21;;;;;;;119.60;87.65;;;9.50;47.70;;;;;;4958924;29;20510;-77
2022/01/25 09:50:47;;;;;;;131.73;97.35;;;8.80;49.00;;;;;;4959023;29;20059;-75
2022/01/25 09:53:13;;;;;;;61.55;42.80;;;8.10;50.10;;;;;;4940953;29;20031;-76
2022/01/25 09:55:42;;;;;;;59.25;38.05;;;8.00;50.80;;;;;;4940983;29;20486;-77
2022/01/25 09:58:13;;;;;;;49.78;31.45;;;7.90;49.90;;;;;;4958146;29;20027;-78
2022/01/25 10:00:41;;;;;;;121.72;82.80;;;7.30;50.40;;;;;;4940551;29;20038;-78
2022/01/25 10:03:33;;;;;;;47.38;30.35;;;7.10;51.10;;;;;;4941067;29;20023;-79
2022/01/25 10:06:01;;;;;;;52.08;30.70;;;7.20;50.80;;;;;;3913918;29;10000722;-79
2022/01/25 10:08:35;;;;;;;46.92;24.95;;;7.00;51.60;;;;;;4919303;29;20148;-80
2022/01/25 10:11:08;;;;;;;33.13;18.67;;;7.10;51.10;;;;;;4921330;29;20420;-79
2022/01/25 10:13:42;;;;;;;40.85;27.38;;;6.90;51.40;;;;;;4938636;29;20091;-79
2022/01/25 10:16:11;;;;;;;33.13;20.60;;;7.40;50.90;;;;;;4920845;29;20518;-85
2022/01/25 10:18:44;;;;;;;33.80;18.00;;;7.90;50.30;;;;;;4921786;29;20133;-80
2022/01/25 10:21:16;;;;;;;34.95;21.67;;;7.90;49.50;;;;;;4883081;29;20023;-79
2022/01/25 10:24:02;;;;;;;48.25;32.92;;;7.90;49.80;;;;;;4940022;29;20039;-81
2022/01/25 10:26:41;;;;;;;47.75;30.38;;;8.20;49.40;;;;;;4958070;29;20027;-80
2022/01/25 10:29:08;;;;;;;39.88;21.83;;;8.10;49.30;;;;;;4940966;29;20502;-79
2022/01/25 10:31:48;;;;;;;34.45;18.70;;;7.70;50.10;;;;;;4940064;29;20019;-81
2022/01/25 10:34:17;;;;;;;69.53;45.58;;;7.40;50.70;;;;;;4940212;29;20058;-79
2022/01/25 10:36:48;;;;;;;53.88;34.45;;;7.30;51.10;;;;;;4940592;29;20043;-80
2022/01/25 10:39:28;;;;;;;74.90;53.50;;;7.20;50.80;;;;;;4940775;29;20028;-80
2022/01/25 10:42:27;;;;;;;41.38;22.88;;;7.20;51.70;;;;;;4957913;29;20374;-79
2022/01/25 10:45:02;;;;;;;46.20;27.38;;;7.20;51.40;;;;;;4938395;29;20051;-81
2022/01/25 10:47:40;;;;;;;36.63;19.90;;;7.20;52.30;;;;;;4940753;29;20043;-79
2022/01/25 10:50:35;;;;;;;418.92;209.88;;;7.30;51.50;;;;;;4922146;29;20508;-79
2022/01/25 10:53:09;;;;;;;195.18;118.93;;;7.60;51.60;;;;;;4938191;29;20512;-81
2022/01/25 10:55:37;;;;;;;109.70;74.32;;;8.20;50.70;;;;;;4938795;29;20078;-84
2022/01/25 10:58:04;;;;;;;52.40;35.38;;;8.90;49.70;;;;;;4938613;29;20035;-82
2022/01/25 11:00:35;;;;;;;47.35;31.75;;;9.20;48.50;;;;;;4921768;29;20027;-79
2022/01/25 11:03:03;;;;;;;44.00;26.98;;;8.90;49.00;;;;;;4918232;29;20060;-82
2022/01/25 11:05:41;;;;;;;40.40;24.92;;;8.90;49.20;;;;;;4939069;29;20032;-77
2022/01/25 11:08:20;;;;;;;43.05;25.17;;;8.90;49.40;;;;;;4937777;29;20031;-76
2022/01/25 11:10:55;;;;;;;50.60;32.83;;;9.30;48.90;;;;;;4938134;29;20058;-78
2022/01/25 11:13:48;;;;;;;47.72;28.05;;;9.70;47.90;;;;;;4918234;29;20031;-78
2022/01/25 11:16:12;;;;;;;48.20;30.70;;;8.80;49.10;;;;;;4936980;29;20036;-78
2022/01/25 11:18:39;;;;;;;51.33;35.83;;;8.90;50.10;;;;;;4920842;29;20074;-79
2022/01/25 11:21:10;;;;;;;53.63;34.30;;;9.80;48.60;;;;;;4937878;29;20027;-78
2022/01/25 11:23:38;;;;;;;125.20;74.43;;;10.30;48.30;;;;;;4936143;29;20522;-82
2022/01/25 11:26:06;;;;;;;72.82;41.17;;;10.80;46.80;;;;;;4919627;29;20058;-79
2022/01/25 11:28:35;;;;;;;192.20;105.38;;;11.10;46.70;;;;;;4918766;29;20031;-78
2022/01/25 11:31:05;;;;;;;58.25;38.28;;;11.30;46.10;;;;;;4936229;29;20020;-78
2022/01/25 11:33:33;;;;;;;56.33;38.42;;;11.20;46.20;;;;;;4919637;29;20090;-77
2022/01/25 11:36:01;;;;;;;60.80;40.15;;;10.60;47.30;;;;;;4937084;29;20046;-78
2022/01/25 11:38:48;;;;;;;54.38;30.52;;;10.40;47.30;;;;;;4920235;29;20053;-79
2022/01/25 11:41:16;;;;;;;256.60;152.52;;;9.20;48.70;;;;;;4937414;29;20028;-80
2022/01/25 11:43:44;;;;;;;78.63;44.10;;;8.70;50.50;;;;;;4938202;29;20105;-91
2022/01/25 11:46:10;;;;;;;80.55;43.05;;;8.10;51.60;;;;;;4938069;29;20522;-88
2022/01/25 11:48:45;;;;;;;64.32;38.80;;;7.30;52.50;;;;;;4921170;29;20471;-78
2022/01/25 11:51:17;;;;;;;51.38;32.40;;;6.90;53.70;;;;;;4921116;29;20024;-79
2022/01/25 11:53:49;;;;;;;52.92;30.88;;;6.80;54.40;;;;;;4920712;29;20114;-86
2022/01/25 11:56:17;;;;;;;52.22;31.05;;;7.10;54.00;;;;;;4933012;29;20038;-79
2022/01/25 11:58:54;;;;;;;42.58;24.33;;;7.20;53.30;;;;;;4920260;29;20028;-80
2022/01/25 12:01:23;;;;;;;41.58;24.27;;;7.00;54.60;;;;;;4920205;29;20118;-81
2022/01/25 12:04:00;;;;;;;55.08;31.33;;;7.20;54.00;;;;;;4920305;29;20059;-80
2022/01/25 12:06:34;;;;;;;44.78;24.58;;;7.10;54.40;;;;;;4920128;29;20398;-78
2022/01/25 12:12:01;;;;;;;43.28;25.95;;;7.50;54.00;;;;;;4937712;29;20020;-92
2022/01/25 12:14:41;;;;;;;41.22;22.35;;;7.60;53.10;;;;;;4920813;29;20035;-79
2022/01/25 12:17:06;;;;;;;40.67;23.08;;;7.80;53.30;;;;;;4920612;29;20071;-86
2022/01/25 12:19:48;;;;;;;41.42;22.20;;;7.90;52.60;;;;;;4920983;29;20032;-82
2022/01/25 12:22:47;;;;;;;54.25;33.72;;;7.60;53.20;;;;;;4921070;29;20115;-78
2022/01/25 12:27:52;;;;;;;46.05;26.60;;;7.40;53.80;;;;;;4937443;29;20189;-80
2022/01/25 12:30:20;;;;;;;40.33;21.85;;;7.20;54.30;;;;;;4920272;29;20038;-79
2022/01/25 12:33:00;;;;;;;41.03;23.58;;;6.80;55.20;;;;;;4936968;29;20514;-78
2022/01/25 12:35:48;;;;;;;44.10;23.70;;;7.00;55.40;;;;;;4920348;29;20526;-79
2022/01/25 12:38:35;;;;;;;58.13;32.13;;;7.50;54.60;;;;;;4919861;29;20034;-79
2022/01/25 12:41:15;;;;;;;45.17;26.67;;;7.80;53.70;;;;;;4940252;29;20098;-78
2022/01/25 12:44:04;;;;;;;46.03;25.83;;;8.00;53.30;;;;;;4923668;29;20044;-80
2022/01/25 12:46:34;;;;;;;44.92;24.67;;;7.50;53.50;;;;;;4923642;29;20071;-79
2022/01/25 12:49:04;;;;;;;47.95;25.67;;;7.10;55.00;;;;;;4923306;29;20051;-78
2022/01/25 12:51:33;;;;;;;53.28;31.95;;;6.90;55.90;;;;;;4940473;29;20031;-80
2022/01/25 12:54:01;;;;;;;45.75;23.90;;;7.20;55.30;;;;;;4923746;29;20051;-80
2022/01/25 12:56:30;;;;;;;46.35;25.75;;;6.80;55.90;;;;;;4940351;29;20024;-80
2022/01/25 12:58:58;;;;;;;46.58;26.75;;;6.60;56.40;;;;;;4940864;29;20027;-79
2022/01/25 13:01:26;;;;;;;48.00;26.40;;;6.40;57.20;;;;;;4923217;29;20032;-79
2022/01/25 13:04:01;;;;;;;46.00;24.95;;;6.60;57.20;;;;;;4923481;29;20426;-79
2022/01/25 13:06:32;;;;;;;49.72;25.73;;;6.80;56.90;;;;;;4923145;29;20037;-81
2022/01/25 13:09:15;;;;;;;54.20;30.08;;;6.60;56.90;;;;;;4923304;29;20471;-80
2022/01/25 13:14:30;;;;;;;54.83;28.27;;;6.30;58.30;;;;;;4940514;29;20027;-84
2022/01/25 13:16:56;;;;;;;50.03;26.63;;;6.40;58.10;;;;;;4922986;29;20034;-82
2022/01/25 13:19:52;;;;;;;47.25;27.35;;;6.40;58.60;;;;;;4923511;29;20059;-79
2022/01/25 13:22:23;;;;;;;49.35;28.23;;;6.20;59.20;;;;;;4921672;29;20419;-82
2022/01/25 13:25:08;;;;;;;53.33;27.90;;;6.00;59.30;;;;;;4940122;29;20035;-82
2022/01/25 13:27:45;;;;;;;49.78;28.05;;;6.00;59.90;;;;;;4922786;29;20082;-79
2022/01/25 13:32:58;;;;;;;50.35;27.45;;;6.20;59.70;;;;;;4940446;29;20035;-81
2022/01/25 13:35:31;;;;;;;52.63;29.58;;;6.00;60.30;;;;;;4923033;29;20031;-79
2022/01/25 13:38:19;;;;;;;47.97;28.08;;;6.00;60.90;;;;;;4922933;29;20031;-81
2022/01/25 13:41:41;;;;;;;47.10;26.80;;;6.20;60.50;;;;;;4922857;29;20032;-80
2022/01/25 13:46:20;;;;;;;46.45;26.70;;;6.00;60.80;;;;;;4939668;29;20038;-81
2022/01/25 13:48:48;;;;;;;49.95;27.27;;;6.50;59.80;;;;;;4921938;29;20055;-79
2022/01/25 13:51:17;;;;;;;49.60;27.15;;;6.60;59.40;;;;;;4922578;29;20035;-81
2022/01/25 13:53:48;;;;;;;46.97;27.27;;;6.70;59.50;;;;;;4939334;29;20024;-81
2022/01/25 13:56:16;;;;;;;50.33;29.15;;;7.10;58.70;;;;;;4922634;29;20028;-80
2022/01/25 13:58:46;;;;;;;47.30;26.40;;;6.90;58.90;;;;;;4939387;29;20055;-80
2022/01/25 14:01:13;;;;;;;51.22;28.95;;;6.90;59.10;;;;;;4922272;29;20027;-80
2022/01/25 14:03:52;;;;;;;54.10;29.23;;;6.80;59.20;;;;;;4922858;29;20459;-80
2022/01/25 14:06:23;;;;;;;51.90;28.02;;;6.70;59.60;;;;;;4939272;29;20378;-82
2022/01/25 14:08:50;;;;;;;55.70;30.52;;;6.80;59.50;;;;;;4921947;29;20028;-80
2022/01/25 14:11:27;;;;;;;50.90;28.35;;;7.00;59.40;;;;;;4921946;29;20119;-79
2022/01/25 14:24:37;;;;;;;60.55;32.03;;;6.80;60.20;;;;;;4938942;29;20036;-79
2022/01/25 14:27:30;;;;;;;54.47;29.17;;;6.70;60.10;;;;;;4938645;29;20032;-79
2022/01/25 14:29:57;;;;;;;55.70;29.88;;;6.80;60.00;;;;;;4915931;29;20509;-81
2022/01/25 14:32:33;;;;;;;54.45;30.27;;;6.80;59.90;;;;;;4921593;29;20042;-80
2022/01/25 14:35:08;;;;;;;51.97;28.13;;;6.80;60.00;;;;;;4921665;29;20023;-79
2022/01/25 14:37:35;;;;;;;50.67;28.20;;;6.70;60.10;;;;;;4938215;29;20030;-85
2022/01/25 14:40:12;;;;;;;53.28;27.70;;;6.80;60.10;;;;;;4921672;29;20094;-82
2022/01/25 14:42:39;;;;;;;64.47;30.95;;;6.80;60.30;;;;;;4920382;29;20035;-78
2022/01/25 14:45:07;;;;;;;61.47;33.58;;;7.20;59.10;;;;;;4921438;29;20079;-79
2022/01/25 14:47:38;;;;;;;55.25;28.95;;;7.40;58.90;;;;;;4920910;29;20048;-80
2022/01/25 14:50:20;;;;;;;60.40;31.73;;;7.50;58.10;;;;;;4921208;29;20055;-79
2022/01/25 14:53:08;;;;;;;60.13;30.85;;;7.80;58.20;;;;;;4920937;29;20542;-79
2022/01/25 14:55:37;;;;;;;54.42;28.85;;;7.90;57.80;;;;;;4921237;29;20034;-80
2022/01/25 15:00:49;;;;;;;60.97;31.80;;;7.90;57.30;;;;;;4939740;29;20379;-78
2022/01/25 15:03:16;;;;;;;96.50;49.65;;;7.90;57.60;;;;;;4920195;29;20038;-79
2022/01/25 15:05:42;;;;;;;69.45;38.72;;;7.80;57.60;;;;;;4921100;29;20028;-79
2022/01/25 15:08:08;;;;;;;111.05;61.33;;;7.50;58.00;;;;;;4937790;29;20034;-78
2022/01/25 15:10:34;;;;;;;102.13;63.15;;;7.50;58.30;;;;;;4920838;29;20032;-79
2022/01/25 15:13:03;;;;;;;129.10;87.93;;;7.30;59.10;;;;;;4921195;29;20034;-90
2022/01/25 15:15:54;;;;;;;101.43;63.20;;;7.60;58.70;;;;;;4921499;29;20039;-91
2022/01/25 15:18:25;;;;;;;67.93;36.33;;;7.50;58.50;;;;;;4923374;29;20027;-92
2022/01/25 15:20:52;;;;;;;90.32;51.88;;;7.30;59.20;;;;;;4923929;29;20040;-90
2022/01/25 15:23:22;;;;;;;106.45;59.90;;;7.20;59.50;;;;;;4921228;29;20024;-91
2022/01/25 15:25:56;;;;;;;164.18;97.15;;;7.60;59.20;;;;;;4921034;29;20020;-92
2022/01/25 15:28:37;;;;;;;125.93;70.22;;;7.80;58.30;;;;;;4938337;29;20115;-84
2022/01/25 15:31:04;;;;;;;86.30;48.42;;;7.80;58.00;;;;;;4920316;29;20467;-84
2022/01/25 15:33:30;;;;;;;193.65;110.78;;;7.60;58.50;;;;;;4938240;29;20023;-80
2022/01/25 15:35:56;;;;;;;174.02;123.88;;;7.30;59.20;;;;;;4920441;29;20027;-78
2022/01/25 15:38:22;;;;;;;228.27;142.02;;;7.00;60.30;;;;;;4920806;29;20027;-79
2022/01/25 15:40:48;;;;;;;155.82;101.15;;;6.80;61.10;;;;;;4937685;29;20040;-78
2022/01/25 15:43:21;;;;;;;75.70;39.28;;;6.70;61.40;;;;;;4937866;29;20031;-80
2022/01/25 15:46:02;;;;;;;95.60;57.63;;;7.00;60.20;;;;;;4937259;29;20028;-80
2022/01/25 15:48:29;;;;;;;80.65;40.38;;;7.00;60.70;;;;;;4920436;29;20048;-78
2022/01/25 15:50:54;;;;;;;82.32;42.15;;;7.10;60.60;;;;;;4937357;29;20598;-79
2022/01/25 15:53:20;;;;;;;75.07;42.10;;;7.00;60.90;;;;;;4937537;29;20103;-80
2022/01/25 15:55:46;;;;;;;97.30;56.60;;;6.90;61.20;;;;;;4937338;29;20034;-86
2022/01/25 15:58:11;;;;;;;79.03;37.90;;;7.10;61.30;;;;;;4919791;29;20059;-80
2022/01/25 16:00:38;;;;;;;75.72;39.70;;;7.10;60.40;;;;;;4919960;29;20024;-85
2022/01/25 16:03:04;;;;;;;79.95;37.60;;;7.40;60.60;;;;;;4919967;29;20023;-83
2022/01/25 16:05:30;;;;;;;78.80;40.03;;;7.30;60.40;;;;;;4920231;29;20027;-80
2022/01/25 16:07:56;;;;;;;81.57;44.05;;;6.90;61.80;;;;;;4919738;29;20035;-80
2022/01/25 16:10:22;;;;;;;86.38;45.30;;;6.80;61.50;;;;;;4937165;29;20221;-78
2022/01/25 16:12:49;;;;;;;87.10;48.90;;;6.90;62.40;;;;;;4919754;29;20387;-78
2022/01/25 16:15:15;;;;;;;78.03;38.70;;;7.30;61.20;;;;;;4939307;29;20049;-79
2022/01/25 16:17:41;;;;;;;73.35;37.85;;;7.50;60.10;;;;;;4940428;29;20028;-79
2022/01/25 16:20:10;;;;;;;75.05;35.83;;;7.40;60.10;;;;;;4941446;29;20031;-80
2022/01/25 16:22:36;;;;;;;91.68;47.95;;;7.10;60.90;;;;;;4923668;29;20024;-78
2022/01/25 16:25:03;;;;;;;149.50;98.43;;;6.80;62.50;;;;;;4923986;29;20040;-78
2022/01/25 16:27:29;;;;;;;215.52;149.52;;;6.80;62.30;;;;;;4923745;29;20051;-77
2022/01/25 16:29:55;;;;;;;119.28;76.15;;;6.70;62.70;;;;;;4924186;29;20067;-79
2022/01/25 16:32:23;;;;;;;88.28;49.72;;;7.00;62.50;;;;;;4940377;29;20676;-85
2022/01/25 16:34:49;;;;;;;95.80;50.78;;;7.20;61.90;;;;;;4923844;29;20028;-81
2022/01/25 16:37:15;;;;;;;100.82;51.13;;;7.40;60.90;;;;;;4923726;29;20074;-77
2022/01/25 16:39:41;;;;;;;119.90;63.03;;;7.50;61.80;;;;;;4923411;29;20032;-77
2022/01/25 16:42:07;;;;;;;83.07;40.58;;;7.40;61.40;;;;;;4923553;29;20090;-81
2022/01/25 16:44:33;;;;;;;90.28;46.53;;;7.40;61.40;;;;;;4923391;29;20423;-77
2022/01/25 16:46:59;;;;;;;90.72;46.95;;;7.30;61.50;;;;;;4923397;29;20036;-80
2022/01/25 16:49:25;;;;;;;143.45;76.30;;;7.40;61.80;;;;;;4923808;29;20043;-81
2022/01/25 16:51:51;;;;;;;154.32;81.07;;;7.20;62.30;;;;;;4923770;29;20030;-81
2022/01/25 16:54:16;;;;;;;96.00;49.08;;;7.30;61.50;;;;;;4923513;29;20027;-79
2022/01/25 16:56:44;;;;;;;82.75;40.67;;;7.00;62.60;;;;;;4923518;29;20031;-78
2022/01/25 16:59:11;;;;;;;92.90;49.50;;;6.90;62.60;;;;;;4940395;29;20035;-80
2022/01/25 17:01:38;;;;;;;165.30;94.35;;;6.90;63.50;;;;;;4226431;29;10000727;-78
2022/01/25 17:04:06;;;;;;;137.25;84.10;;;6.80;63.80;;;;;;4919015;29;20047;-79
2022/01/25 17:06:31;;;;;;;83.47;43.55;;;7.20;62.80;;;;;;4902160;29;20095;-88
2022/01/25 17:08:57;;;;;;;96.95;49.88;;;7.40;62.10;;;;;;4919006;29;20036;-80
2022/01/25 17:11:23;;;;;;;104.45;59.30;;;7.40;62.40;;;;;;4918432;29;20126;-78
2022/01/25 17:13:49;;;;;;;83.20;43.50;;;7.70;61.20;;;;;;4901640;29;20028;-78
2022/01/25 17:16:15;;;;;;;89.03;47.08;;;7.80;60.80;;;;;;4918049;29;20516;-79
2022/01/25 17:18:43;;;;;;;78.97;38.90;;;7.40;62.00;;;;;;4919164;29;20043;-78
2022/01/25 17:21:08;;;;;;;81.68;43.47;;;7.00;63.50;;;;;;4901361;29;20032;-79
2022/01/25 17:23:34;;;;;;;89.63;48.63;;;6.80;64.00;;;;;;4901181;29;20483;-80
2022/01/25 17:26:00;;;;;;;86.25;44.38;;;6.90;63.80;;;;;;4900901;29;20024;-79
2022/01/25 17:28:26;;;;;;;87.47;43.97;;;7.00;63.80;;;;;;4901927;29;20028;-79
2022/01/25 17:30:52;;;;;;;85.70;44.13;;;7.00;64.10;;;;;;4901558;29;20028;-85
2022/01/25 17:33:19;;;;;;;82.10;44.47;;;7.10;63.70;;;;;;4901518;29;20036;-77
2022/01/25 17:35:44;;;;;;;89.45;46.70;;;7.10;63.70;;;;;;4900984;29;20032;-78
2022/01/25 17:38:10;;;;;;;87.22;43.78;;;7.30;63.70;;;;;;4917635;29;20028;-79
2022/01/25 17:40:40;;;;;;;90.00;44.22;;;7.40;63.20;;;;;;4901234;29;20035;-80
2022/01/25 17:43:08;;;;;;;83.90;40.63;;;7.40;63.20;;;;;;4901210;29;20819;-79
2022/01/25 17:45:34;;;;;;;85.97;44.10;;;7.40;63.30;;;;;;4901561;29;20044;-79
2022/01/25 17:48:00;;;;;;;77.35;37.70;;;7.30;63.80;;;;;;4907558;29;20108;-80
2022/01/25 17:50:25;;;;;;;101.63;53.47;;;7.30;63.60;;;;;;4917159;29;20043;-79
2022/01/25 17:52:51;;;;;;;100.75;51.65;;;7.10;63.90;;;;;;4916981;29;20035;-77
2022/01/25 17:55:17;;;;;;;80.20;38.28;;;7.00;64.40;;;;;;4917276;29;20028;-78
2022/01/25 17:57:43;;;;;;;91.68;44.55;;;6.90;64.90;;;;;;4916578;29;20115;-80
2022/01/25 18:00:11;;;;;;;85.90;42.63;;;7.20;64.30;;;;;;4921715;29;20540;-80
2022/01/25 18:02:39;;;;;;;80.15;39.47;;;7.40;63.70;;;;;;4936385;29;20086;-77
2022/01/25 18:05:05;;;;;;;72.45;36.03;;;7.30;63.60;;;;;;4937102;29;20036;-79
2022/01/25 18:07:31;;;;;;;79.85;40.92;;;7.10;64.20;;;;;;4934916;29;20391;-80
2022/01/25 18:09:56;;;;;;;75.40;38.53;;;7.20;64.30;;;;;;4936780;29;20479;-81
2022/01/25 18:12:22;;;;;;;72.00;36.10;;;7.40;63.90;;;;;;4920037;29;20032;-80
2022/01/25 18:14:48;;;;;;;73.82;35.85;;;7.30;63.80;;;;;;4937088;29;20091;-79